sensor_id;sensor_type;location;lat;lon;timestamp;temperature;humidity
43414;DHT22;29013;49.676;8.606;2023-08-06T00:04:53;16.7;99.9
43414;DHT22;29013;49.676;8.606;2023-08-06T00:10:18;17.0;99.9
43414;DHT22;29013;49.676;8.606;2023-08-06T00:15:42;17.0;99.9
43414;DHT22;29013;49.676;8.606;2023-08-06T00:21:08;17.1;99.9
43414;DHT22;29013;49.676;8.606;2023-08-06T00:26:26;17.3;99.9
43414;DHT22;29013;49.676;8.606;2023-08-06T00:31:45;17.3;99.9
43414;DHT22;29013;49.676;8.606;2023-08-06T00:37:09;17.2;99.9
43414;DHT22;29013;49.676;8.606;2023-08-06T00:42:29;17.2;99.9
43414;DHT22;29013;49.676;8.606;2023-08-06T00:47:51;17.3;99.9
43414;DHT22;29013;49.676;8.606;2023-08-06T00:53:13;17.3;99.9
43414;DHT22;29013;49.676;8.606;2023-08-06T00:58:37;17.3;99.9
43414;DHT22;29013;49.676;8.606;2023-08-06T01:04:43;17.2;99.9
43414;DHT22;29013;49.676;8.606;2023-08-06T01:10:10;17.4;99.9
43414;DHT22;29013;49.676;8.606;2023-08-06T01:15:32;17.5;99.9
43414;DHT22;29013;49.676;8.606;2023-08-06T01:20:56;17.4;99.9
43414;DHT22;29013;49.676;8.606;2023-08-06T01:26:24;17.4;99.9
43414;DHT22;29013;49.676;8.606;2023-08-06T01:31:47;17.4;99.9
43414;DHT22;29013;49.676;8.606;2023-08-06T01:37:11;17.3;99.9
43414;DHT22;29013;49.676;8.606;2023-08-06T01:42:33;17.4;99.9
43414;DHT22;29013;49.676;8.606;2023-08-06T01:47:58;17.4;99.9
43414;DHT22;29013;49.676;8.606;2023-08-06T01:53:44;17.4;99.9
43414;DHT22;29013;49.676;8.606;2023-08-06T01:59:07;17.6;99.9
43414;DHT22;29013;49.676;8.606;2023-08-06T02:04:32;17.6;99.9
43414;DHT22;29013;49.676;8.606;2023-08-06T02:09:56;17.6;99.9
43414;DHT22;29013;49.676;8.606;2023-08-06T02:15:17;17.6;99.9
43414;DHT22;29013;49.676;8.606;2023-08-06T02:20:59;17.5;99.9
43414;DHT22;29013;49.676;8.606;2023-08-06T02:26:22;17.7;99.9
43414;DHT22;29013;49.676;8.606;2023-08-06T02:31:46;17.5;99.9
43414;DHT22;29013;49.676;8.606;2023-08-06T02:37:10;17.5;99.9
43414;DHT22;29013;49.676;8.606;2023-08-06T02:42:33;17.3;99.9
43414;DHT22;29013;49.676;8.606;2023-08-06T02:47:58;17.3;99.9
43414;DHT22;29013;49.676;8.606;2023-08-06T02:53:22;17.3;99.9
43414;DHT22;29013;49.676;8.606;2023-08-06T02:58:46;17.3;99.9
43414;DHT22;29013;49.676;8.606;2023-08-06T03:04:11;17.4;99.9
43414;DHT22;29013;49.676;8.606;2023-08-06T03:09:33;17.4;99.9
43414;DHT22;29013;49.676;8.606;2023-08-06T03:14:56;17.2;99.9
43414;DHT22;29013;49.676;8.606;2023-08-06T03:20:20;17.1;99.9
43414;DHT22;29013;49.676;8.606;2023-08-06T03:25:44;17.1;99.9
43414;DHT22;29013;49.676;8.606;2023-08-06T03:31:09;17.2;99.9
43414;DHT22;29013;49.676;8.606;2023-08-06T03:36:35;17.3;99.9
43414;DHT22;29013;49.676;8.606;2023-08-06T03:41:53;17.4;99.9
43414;DHT22;29013;49.676;8.606;2023-08-06T03:47:16;17.4;99.9
43414;DHT22;29013;49.676;8.606;2023-08-06T03:52:41;17.4;99.9
43414;DHT22;29013;49.676;8.606;2023-08-06T03:58:06;17.4;99.9
43414;DHT22;29013;49.676;8.606;2023-08-06T04:03:30;17.3;99.9
43414;DHT22;29013;49.676;8.606;2023-08-06T04:08:48;17.3;99.9
43414;DHT22;29013;49.676;8.606;2023-08-06T04:14:12;17.3;99.9
43414;DHT22;29013;49.676;8.606;2023-08-06T04:19:36;17.2;99.9
43414;DHT22;29013;49.676;8.606;2023-08-06T04:25:03;17.2;99.9
43414;DHT22;29013;49.676;8.606;2023-08-06T04:30:27;17.1;99.9
43414;DHT22;29013;49.676;8.606;2023-08-06T04:35:55;17.1;99.9
43414;DHT22;29013;49.676;8.606;2023-08-06T04:41:18;17.1;99.9
43414;DHT22;29013;49.676;8.606;2023-08-06T04:47:02;17.0;99.9
43414;DHT22;29013;49.676;8.606;2023-08-06T04:52:26;17.1;99.9
43414;DHT22;29013;49.676;8.606;2023-08-06T04:57:50;17.1;99.9
43414;DHT22;29013;49.676;8.606;2023-08-06T05:03:31;16.9;99.9
43414;DHT22;29013;49.676;8.606;2023-08-06T05:08:54;17.1;99.9
43414;DHT22;29013;49.676;8.606;2023-08-06T05:14:19;17.1;99.9
43414;DHT22;29013;49.676;8.606;2023-08-06T05:19:43;17.1;99.9
43414;DHT22;29013;49.676;8.606;2023-08-06T05:25:12;17.1;99.9
43414;DHT22;29013;49.676;8.606;2023-08-06T05:30:43;17.0;99.9
43414;DHT22;29013;49.676;8.606;2023-08-06T05:36:04;17.1;99.9
43414;DHT22;29013;49.676;8.606;2023-08-06T05:41:48;17.0;99.9
43414;DHT22;29013;49.676;8.606;2023-08-06T05:47:08;17.1;99.9
43414;DHT22;29013;49.676;8.606;2023-08-06T05:52:34;17.0;99.9
43414;DHT22;29013;49.676;8.606;2023-08-06T05:57:57;17.0;99.9
43414;DHT22;29013;49.676;8.606;2023-08-06T06:03:21;17.0;99.9
43414;DHT22;29013;49.676;8.606;2023-08-06T06:08:45;17.0;99.9
43414;DHT22;29013;49.676;8.606;2023-08-06T06:14:30;17.0;99.9
43414;DHT22;29013;49.676;8.606;2023-08-06T06:19:54;17.2;99.9
43414;DHT22;29013;49.676;8.606;2023-08-06T06:25:19;17.2;99.9
43414;DHT22;29013;49.676;8.606;2023-08-06T06:30:45;17.3;99.9
43414;DHT22;29013;49.676;8.606;2023-08-06T06:36:10;17.3;99.9
43414;DHT22;29013;49.676;8.606;2023-08-06T06:41:32;17.2;99.9
43414;DHT22;29013;49.676;8.606;2023-08-06T06:47:17;17.1;99.9
43414;DHT22;29013;49.676;8.606;2023-08-06T06:52:37;17.3;99.9
43414;DHT22;29013;49.676;8.606;2023-08-06T06:58:22;17.3;99.9
43414;DHT22;29013;49.676;8.606;2023-08-06T07:03:46;17.4;99.9
43414;DHT22;29013;49.676;8.606;2023-08-06T07:09:11;17.4;99.9
43414;DHT22;29013;49.676;8.606;2023-08-06T07:14:35;17.5;99.9
43414;DHT22;29013;49.676;8.606;2023-08-06T07:19:56;17.5;99.9
43414;DHT22;29013;49.676;8.606;2023-08-06T07:25:20;17.5;99.9
43414;DHT22;29013;49.676;8.606;2023-08-06T07:36:19;17.8;99.9
43414;DHT22;29013;49.676;8.606;2023-08-06T07:41:44;17.9;99.9
43414;DHT22;29013;49.676;8.606;2023-08-06T07:47:07;17.9;99.9
43414;DHT22;29013;49.676;8.606;2023-08-06T07:52:24;17.9;99.9
43414;DHT22;29013;49.676;8.606;2023-08-06T07:57:49;18.0;99.9
43414;DHT22;29013;49.676;8.606;2023-08-06T08:03:11;18.2;99.9
43414;DHT22;29013;49.676;8.606;2023-08-06T08:08:36;18.2;99.9
43414;DHT22;29013;49.676;8.606;2023-08-06T08:14:01;18.5;99.9
43414;DHT22;29013;49.676;8.606;2023-08-06T08:19:30;19.0;99.9
43414;DHT22;29013;49.676;8.606;2023-08-06T08:24:55;19.3;99.9
43414;DHT22;29013;49.676;8.606;2023-08-06T08:30:38;19.4;99.9
43414;DHT22;29013;49.676;8.606;2023-08-06T08:36:02;19.6;99.9
43414;DHT22;29013;49.676;8.606;2023-08-06T08:41:26;19.7;99.9
43414;DHT22;29013;49.676;8.606;2023-08-06T08:46:46;19.7;99.9
43414;DHT22;29013;49.676;8.606;2023-08-06T08:52:31;19.8;99.9
43414;DHT22;29013;49.676;8.606;2023-08-06T08:58:05;20.0;99.9
43414;DHT22;29013;49.676;8.606;2023-08-06T09:03:26;19.9;99.9
43414;DHT22;29013;49.676;8.606;2023-08-06T09:08:51;19.8;99.9
43414;DHT22;29013;49.676;8.606;2023-08-06T09:14:15;19.7;99.9
43414;DHT22;29013;49.676;8.606;2023-08-06T09:19:37;19.7;99.9
43414;DHT22;29013;49.676;8.606;2023-08-06T09:25:01;19.7;99.9
43414;DHT22;29013;49.676;8.606;2023-08-06T09:30:35;19.7;99.9
43414;DHT22;29013;49.676;8.606;2023-08-06T09:35:57;20.1;99.9
43414;DHT22;29013;49.676;8.606;2023-08-06T09:41:27;20.5;99.9
43414;DHT22;29013;49.676;8.606;2023-08-06T09:46:48;20.6;99.9
43414;DHT22;29013;49.676;8.606;2023-08-06T09:52:12;20.6;99.9
43414;DHT22;29013;49.676;8.606;2023-08-06T09:57:41;20.4;99.9
43414;DHT22;29013;49.676;8.606;2023-08-06T10:03:03;20.1;99.9
43414;DHT22;29013;49.676;8.606;2023-08-06T10:08:23;20.0;99.9
43414;DHT22;29013;49.676;8.606;2023-08-06T10:13:47;20.1;99.9
43414;DHT22;29013;49.676;8.606;2023-08-06T10:19:10;19.9;99.9
43414;DHT22;29013;49.676;8.606;2023-08-06T10:24:51;19.9;99.9
43414;DHT22;29013;49.676;8.606;2023-08-06T10:30:25;20.0;99.9
43414;DHT22;29013;49.676;8.606;2023-08-06T10:35:47;19.9;99.9
43414;DHT22;29013;49.676;8.606;2023-08-06T10:41:14;19.5;99.9
43414;DHT22;29013;49.676;8.606;2023-08-06T10:46:37;19.3;99.9
43414;DHT22;29013;49.676;8.606;2023-08-06T10:51:59;19.1;99.9
43414;DHT22;29013;49.676;8.606;2023-08-06T10:57:19;19.1;99.9
43414;DHT22;29013;49.676;8.606;2023-08-06T11:02:44;18.9;99.9
43414;DHT22;29013;49.676;8.606;2023-08-06T11:08:06;18.8;99.9
43414;DHT22;29013;49.676;8.606;2023-08-06T11:13:26;18.7;99.9
43414;DHT22;29013;49.676;8.606;2023-08-06T11:18:50;18.6;99.9
43414;DHT22;29013;49.676;8.606;2023-08-06T11:24:12;18.7;99.9
43414;DHT22;29013;49.676;8.606;2023-08-06T11:29:30;18.8;99.9
43414;DHT22;29013;49.676;8.606;2023-08-06T11:34:52;18.7;99.9
43414;DHT22;29013;49.676;8.606;2023-08-06T11:40:13;18.7;99.9
43414;DHT22;29013;49.676;8.606;2023-08-06T11:45:38;18.5;99.9
43414;DHT22;29013;49.676;8.606;2023-08-06T11:51:03;18.6;99.9
43414;DHT22;29013;49.676;8.606;2023-08-06T11:56:27;18.5;99.4
43414;DHT22;29013;49.676;8.606;2023-08-06T12:01:49;18.3;99.9
43414;DHT22;29013;49.676;8.606;2023-08-06T12:07:14;18.4;99.9
43414;DHT22;29013;49.676;8.606;2023-08-06T12:13:03;18.4;99.9
43414;DHT22;29013;49.676;8.606;2023-08-06T12:18:27;18.6;99.9
43414;DHT22;29013;49.676;8.606;2023-08-06T12:23:51;18.5;99.9
43414;DHT22;29013;49.676;8.606;2023-08-06T12:29:13;18.4;99.9
43414;DHT22;29013;49.676;8.606;2023-08-06T12:34:37;18.2;99.9
43414;DHT22;29013;49.676;8.606;2023-08-06T12:40:00;18.2;99.9
43414;DHT22;29013;49.676;8.606;2023-08-06T12:45:19;18.2;99.5
43414;DHT22;29013;49.676;8.606;2023-08-06T12:50:40;18.5;99.9
43414;DHT22;29013;49.676;8.606;2023-08-06T12:56:05;18.8;98.5
43414;DHT22;29013;49.676;8.606;2023-08-06T13:01:30;19.0;99.2
43414;DHT22;29013;49.676;8.606;2023-08-06T13:06:55;19.0;98.7
43414;DHT22;29013;49.676;8.606;2023-08-06T13:12:20;19.1;98.7
43414;DHT22;29013;49.676;8.606;2023-08-06T13:17:43;19.0;98.9
43414;DHT22;29013;49.676;8.606;2023-08-06T13:23:25;19.0;99.2
43414;DHT22;29013;49.676;8.606;2023-08-06T13:28:49;19.2;98.5
43414;DHT22;29013;49.676;8.606;2023-08-06T13:34:13;19.0;99.0
43414;DHT22;29013;49.676;8.606;2023-08-06T13:39:39;19.0;98.7
43414;DHT22;29013;49.676;8.606;2023-08-06T13:45:03;18.8;98.7
43414;DHT22;29013;49.676;8.606;2023-08-06T13:50:26;18.7;98.9
43414;DHT22;29013;49.676;8.606;2023-08-06T13:55:49;18.6;99.8
43414;DHT22;29013;49.676;8.606;2023-08-06T14:01:13;18.7;99.9
43414;DHT22;29013;49.676;8.606;2023-08-06T14:06:38;18.7;99.9
43414;DHT22;29013;49.676;8.606;2023-08-06T14:12:00;18.7;99.8
43414;DHT22;29013;49.676;8.606;2023-08-06T14:17:25;18.9;99.6
43414;DHT22;29013;49.676;8.606;2023-08-06T14:22:49;18.9;99.7
43414;DHT22;29013;49.676;8.606;2023-08-06T14:28:13;18.9;99.1
43414;DHT22;29013;49.676;8.606;2023-08-06T14:33:36;18.7;98.5
43414;DHT22;29013;49.676;8.606;2023-08-06T14:38:56;18.6;98.7
43414;DHT22;29013;49.676;8.606;2023-08-06T14:44:31;18.5;99.1
43414;DHT22;29013;49.676;8.606;2023-08-06T14:50:33;18.5;99.3
43414;DHT22;29013;49.676;8.606;2023-08-06T14:55:53;18.6;99.2
43414;DHT22;29013;49.676;8.606;2023-08-06T15:07:19;18.6;99.3
43414;DHT22;29013;49.676;8.606;2023-08-06T15:12:40;18.4;99.7
43414;DHT22;29013;49.676;8.606;2023-08-06T15:18:06;18.3;99.9
43414;DHT22;29013;49.676;8.606;2023-08-06T15:23:29;18.2;99.9
43414;DHT22;29013;49.676;8.606;2023-08-06T15:28:54;18.0;99.9
43414;DHT22;29013;49.676;8.606;2023-08-06T15:34:17;18.0;99.9
43414;DHT22;29013;49.676;8.606;2023-08-06T15:39:39;17.9;99.9
43414;DHT22;29013;49.676;8.606;2023-08-06T15:45:01;17.7;99.9
43414;DHT22;29013;49.676;8.606;2023-08-06T15:50:21;17.7;99.9
43414;DHT22;29013;49.676;8.606;2023-08-06T15:55:46;17.7;99.9
43414;DHT22;29013;49.676;8.606;2023-08-06T16:01:40;17.6;99.9
43414;DHT22;29013;49.676;8.606;2023-08-06T16:06:59;17.7;99.9
43414;DHT22;29013;49.676;8.606;2023-08-06T16:12:21;17.6;99.9
43414;DHT22;29013;49.676;8.606;2023-08-06T16:17:43;17.5;99.9
43414;DHT22;29013;49.676;8.606;2023-08-06T16:23:08;17.5;99.9
43414;DHT22;29013;49.676;8.606;2023-08-06T16:28:32;17.4;99.9
43414;DHT22;29013;49.676;8.606;2023-08-06T16:33:54;17.4;99.9
43414;DHT22;29013;49.676;8.606;2023-08-06T16:39:17;17.4;99.9
43414;DHT22;29013;49.676;8.606;2023-08-06T16:44:42;17.3;99.9
43414;DHT22;29013;49.676;8.606;2023-08-06T16:50:08;17.3;99.9
43414;DHT22;29013;49.676;8.606;2023-08-06T16:55:36;17.3;99.9
43414;DHT22;29013;49.676;8.606;2023-08-06T17:01:01;17.4;99.9
43414;DHT22;29013;49.676;8.606;2023-08-06T17:06:26;17.3;99.9
43414;DHT22;29013;49.676;8.606;2023-08-06T17:11:50;17.3;99.9
43414;DHT22;29013;49.676;8.606;2023-08-06T17:17:28;17.2;99.9
43414;DHT22;29013;49.676;8.606;2023-08-06T17:22:46;17.3;99.9
43414;DHT22;29013;49.676;8.606;2023-08-06T17:28:10;17.3;99.9
43414;DHT22;29013;49.676;8.606;2023-08-06T17:33:31;17.2;99.9
43414;DHT22;29013;49.676;8.606;2023-08-06T17:38:54;17.2;99.9
43414;DHT22;29013;49.676;8.606;2023-08-06T17:44:18;17.3;99.9
43414;DHT22;29013;49.676;8.606;2023-08-06T17:49:41;17.3;99.9
43414;DHT22;29013;49.676;8.606;2023-08-06T17:55:06;17.3;99.9
43414;DHT22;29013;49.676;8.606;2023-08-06T18:00:29;17.3;99.9
43414;DHT22;29013;49.676;8.606;2023-08-06T18:05:58;17.3;99.9
43414;DHT22;29013;49.676;8.606;2023-08-06T18:11:22;17.3;99.9
43414;DHT22;29013;49.676;8.606;2023-08-06T18:17:08;17.2;99.9
43414;DHT22;29013;49.676;8.606;2023-08-06T18:22:30;17.3;99.8
43414;DHT22;29013;49.676;8.606;2023-08-06T18:27:54;17.2;99.1
43414;DHT22;29013;49.676;8.606;2023-08-06T18:33:18;17.2;99.9
43414;DHT22;29013;49.676;8.606;2023-08-06T18:38:38;17.2;99.5
43414;DHT22;29013;49.676;8.606;2023-08-06T18:43:56;17.2;99.9
43414;DHT22;29013;49.676;8.606;2023-08-06T18:49:14;17.2;99.2
43414;DHT22;29013;49.676;8.606;2023-08-06T18:54:35;17.1;99.1
43414;DHT22;29013;49.676;8.606;2023-08-06T19:00:08;17.0;98.7
43414;DHT22;29013;49.676;8.606;2023-08-06T19:05:38;16.9;99.3
43414;DHT22;29013;49.676;8.606;2023-08-06T19:11:00;16.9;98.6
43414;DHT22;29013;49.676;8.606;2023-08-06T19:22:08;16.8;98.9
43414;DHT22;29013;49.676;8.606;2023-08-06T19:27:33;16.8;99.0
43414;DHT22;29013;49.676;8.606;2023-08-06T19:33:02;16.8;99.9
43414;DHT22;29013;49.676;8.606;2023-08-06T19:38:30;16.8;99.9
43414;DHT22;29013;49.676;8.606;2023-08-06T19:43:57;16.7;99.9
43414;DHT22;29013;49.676;8.606;2023-08-06T19:49:31;16.5;99.9
43414;DHT22;29013;49.676;8.606;2023-08-06T19:55:00;16.5;99.9
43414;DHT22;29013;49.676;8.606;2023-08-06T20:00:44;16.2;99.9
43414;DHT22;29013;49.676;8.606;2023-08-06T20:06:11;16.2;99.9
43414;DHT22;29013;49.676;8.606;2023-08-06T20:11:38;16.0;99.9
43414;DHT22;29013;49.676;8.606;2023-08-06T20:17:00;15.8;99.9
43414;DHT22;29013;49.676;8.606;2023-08-06T20:27:49;15.7;99.9
43414;DHT22;29013;49.676;8.606;2023-08-06T20:33:14;15.6;99.9
43414;DHT22;29013;49.676;8.606;2023-08-06T20:38:38;15.4;99.9
43414;DHT22;29013;49.676;8.606;2023-08-06T20:44:00;15.5;99.9
43414;DHT22;29013;49.676;8.606;2023-08-06T20:50:11;15.4;99.9
43414;DHT22;29013;49.676;8.606;2023-08-06T20:55:28;15.6;99.9
43414;DHT22;29013;49.676;8.606;2023-08-06T21:00:51;15.3;99.9
43414;DHT22;29013;49.676;8.606;2023-08-06T21:06:12;15.3;99.9
43414;DHT22;29013;49.676;8.606;2023-08-06T21:11:37;15.2;99.9
43414;DHT22;29013;49.676;8.606;2023-08-06T21:17:00;15.2;99.9
43414;DHT22;29013;49.676;8.606;2023-08-06T21:22:27;15.2;99.9
43414;DHT22;29013;49.676;8.606;2023-08-06T21:27:59;15.2;99.9
43414;DHT22;29013;49.676;8.606;2023-08-06T21:33:19;15.2;99.9
43414;DHT22;29013;49.676;8.606;2023-08-06T21:38:41;15.1;99.9
43414;DHT22;29013;49.676;8.606;2023-08-06T21:44:08;15.0;99.9
43414;DHT22;29013;49.676;8.606;2023-08-06T21:49:26;15.1;99.9
43414;DHT22;29013;49.676;8.606;2023-08-06T21:54:47;15.1;99.9
43414;DHT22;29013;49.676;8.606;2023-08-06T22:00:22;15.1;99.9
43414;DHT22;29013;49.676;8.606;2023-08-06T22:06:06;15.1;99.9
43414;DHT22;29013;49.676;8.606;2023-08-06T22:11:26;15.2;99.9
43414;DHT22;29013;49.676;8.606;2023-08-06T22:16:56;15.1;99.9
43414;DHT22;29013;49.676;8.606;2023-08-06T22:22:19;15.1;99.9
43414;DHT22;29013;49.676;8.606;2023-08-06T22:27:48;15.2;99.9
43414;DHT22;29013;49.676;8.606;2023-08-06T22:33:24;15.2;99.9
43414;DHT22;29013;49.676;8.606;2023-08-06T22:38:43;15.2;99.9
43414;DHT22;29013;49.676;8.606;2023-08-06T22:44:20;15.1;99.9
43414;DHT22;29013;49.676;8.606;2023-08-06T22:49:51;15.1;99.9
43414;DHT22;29013;49.676;8.606;2023-08-06T22:55:16;15.1;99.9
43414;DHT22;29013;49.676;8.606;2023-08-06T23:01:04;15.1;99.9
43414;DHT22;29013;49.676;8.606;2023-08-06T23:06:40;15.2;99.9
43414;DHT22;29013;49.676;8.606;2023-08-06T23:12:07;15.2;99.9
43414;DHT22;29013;49.676;8.606;2023-08-06T23:17:52;15.1;99.9
43414;DHT22;29013;49.676;8.606;2023-08-06T23:23:14;15.2;99.9
43414;DHT22;29013;49.676;8.606;2023-08-06T23:28:39;15.1;99.9
43414;DHT22;29013;49.676;8.606;2023-08-06T23:34:07;15.1;99.9
43414;DHT22;29013;49.676;8.606;2023-08-06T23:39:28;15.1;99.9
43414;DHT22;29013;49.676;8.606;2023-08-06T23:44:54;15.1;99.9
43414;DHT22;29013;49.676;8.606;2023-08-06T23:50:25;15.1;99.9
43414;DHT22;29013;49.676;8.606;2023-08-06T23:55:47;15.1;99.9
